Terminal Aerodrome Forecast
Issued by NWS Cleveland, OH

Home | Current Version | Previous Version | Text Only | Print | Product List | Glossary Off
Versions: 1 2 3 4 5 6 7 8 9 10 11 12 13 14 15 16 17 18 19 20 21 22 23 24 25

905
FTUS41 KCLE 030521
TAFYNG
TAF
KYNG 030521Z 0306/0406 34005KT P6SM SCT250
     FM030700 36004KT 6SM BR SCT250
     FM030800 36004KT 3SM BR OVC060
     FM030900 35004KT 3SM BR OVC015
     FM031500 33005KT P6SM BKN060
     FM040200 VRB03KT P6SM BKN100
     FM040500 VRB03KT P6SM BKN250=

USA.gov is the U.S. government's official web portal to all federal, state and local government web resources and services.